Terminal Aerodrome Forecast
Issued by NWS

Home | Current Version | Previous Version | Text Only | Print | Product List | Glossary On
Versions: 1 2 3 4 5 6 7 8 9 10 11 12 13
000
FTUS46 KSGX 262335
TAFPSP
TAF
KPSP 262335Z 2700/2724 33012G24KT P6SM FEW150
     FM270500 VRB06KT P6SM SCT200
     FM271700 34015G30KT 6SM BLDU SCT200=

USA.gov is the U.S. government's official web portal to all federal, state and local government web resources and services.